sensor_id;sensor_type;location;lat;lon;timestamp;temperature;humidity
42663;DHT22;44330;51.360;6.686;2022-07-06T00:01:17;14.30;99.90
42663;DHT22;44330;51.360;6.686;2022-07-06T00:03:43;14.30;1.00
42663;DHT22;44330;51.360;6.686;2022-07-06T00:06:08;14.20;83.90
42663;DHT22;44330;51.360;6.686;2022-07-06T00:08:34;14.10;99.90
42663;DHT22;44330;51.360;6.686;2022-07-06T00:11:00;14.00;99.90
42663;DHT22;44330;51.360;6.686;2022-07-06T00:13:27;14.00;99.90
42663;DHT22;44330;51.360;6.686;2022-07-06T00:15:52;13.90;99.90
42663;DHT22;44330;51.360;6.686;2022-07-06T00:18:18;13.80;99.90
42663;DHT22;44330;51.360;6.686;2022-07-06T00:20:44;13.80;99.90
42663;DHT22;44330;51.360;6.686;2022-07-06T00:23:10;13.80;1.00
42663;DHT22;44330;51.360;6.686;2022-07-06T00:25:35;13.70;1.00
42663;DHT22;44330;51.360;6.686;2022-07-06T00:28:01;13.60;1.00
42663;DHT22;44330;51.360;6.686;2022-07-06T00:30:26;13.60;1.00
42663;DHT22;44330;51.360;6.686;2022-07-06T00:32:53;13.60;1.00
42663;DHT22;44330;51.360;6.686;2022-07-06T00:35:18;13.50;1.00
42663;DHT22;44330;51.360;6.686;2022-07-06T00:37:44;13.50;1.00
42663;DHT22;44330;51.360;6.686;2022-07-06T00:40:09;13.40;1.00
42663;DHT22;44330;51.360;6.686;2022-07-06T00:42:42;13.40;1.00
42663;DHT22;44330;51.360;6.686;2022-07-06T00:45:09;13.30;1.00
42663;DHT22;44330;51.360;6.686;2022-07-06T00:47:38;13.20;1.00
42663;DHT22;44330;51.360;6.686;2022-07-06T00:50:05;13.20;1.00
42663;DHT22;44330;51.360;6.686;2022-07-06T00:52:47;13.10;1.00
42663;DHT22;44330;51.360;6.686;2022-07-06T00:55:14;13.10;1.00
42663;DHT22;44330;51.360;6.686;2022-07-06T00:57:41;13.00;1.00
42663;DHT22;44330;51.360;6.686;2022-07-06T01:00:12;13.00;1.00
42663;DHT22;44330;51.360;6.686;2022-07-06T01:02:38;12.90;1.00
42663;DHT22;44330;51.360;6.686;2022-07-06T01:05:06;12.90;1.00
42663;DHT22;44330;51.360;6.686;2022-07-06T01:07:33;12.80;1.00
42663;DHT22;44330;51.360;6.686;2022-07-06T01:09:59;12.70;1.00
42663;DHT22;44330;51.360;6.686;2022-07-06T01:12:25;12.70;6.70
42663;DHT22;44330;51.360;6.686;2022-07-06T01:14:51;12.70;7.60
42663;DHT22;44330;51.360;6.686;2022-07-06T01:17:17;12.70;6.50
42663;DHT22;44330;51.360;6.686;2022-07-06T01:19:43;12.70;7.40
42663;DHT22;44330;51.360;6.686;2022-07-06T01:22:09;12.70;8.50
42663;DHT22;44330;51.360;6.686;2022-07-06T01:24:36;12.70;10.70
42663;DHT22;44330;51.360;6.686;2022-07-06T01:27:02;12.70;11.50
42663;DHT22;44330;51.360;6.686;2022-07-06T01:29:29;12.70;13.90
42663;DHT22;44330;51.360;6.686;2022-07-06T01:31:54;12.70;14.10
42663;DHT22;44330;51.360;6.686;2022-07-06T01:34:21;12.70;17.30
42663;DHT22;44330;51.360;6.686;2022-07-06T01:36:46;12.70;17.30
42663;DHT22;44330;51.360;6.686;2022-07-06T01:39:12;12.80;14.10
42663;DHT22;44330;51.360;6.686;2022-07-06T01:41:38;12.70;16.70
42663;DHT22;44330;51.360;6.686;2022-07-06T01:44:04;12.80;17.10
42663;DHT22;44330;51.360;6.686;2022-07-06T01:46:30;12.70;15.20
42663;DHT22;44330;51.360;6.686;2022-07-06T01:48:56;12.70;14.60
42663;DHT22;44330;51.360;6.686;2022-07-06T01:51:22;12.70;14.90
42663;DHT22;44330;51.360;6.686;2022-07-06T01:53:48;12.60;14.30
42663;DHT22;44330;51.360;6.686;2022-07-06T01:56:13;12.60;18.40
42663;DHT22;44330;51.360;6.686;2022-07-06T01:58:39;12.60;16.70
42663;DHT22;44330;51.360;6.686;2022-07-06T02:01:17;12.60;18.20
42663;DHT22;44330;51.360;6.686;2022-07-06T02:03:43;12.60;18.80
42663;DHT22;44330;51.360;6.686;2022-07-06T02:06:09;12.60;20.40
42663;DHT22;44330;51.360;6.686;2022-07-06T02:08:37;12.50;21.70
42663;DHT22;44330;51.360;6.686;2022-07-06T02:11:03;12.50;21.90
42663;DHT22;44330;51.360;6.686;2022-07-06T02:13:29;12.50;25.00
42663;DHT22;44330;51.360;6.686;2022-07-06T02:15:55;12.50;29.80
42663;DHT22;44330;51.360;6.686;2022-07-06T02:18:20;12.50;32.10
42663;DHT22;44330;51.360;6.686;2022-07-06T02:20:46;12.50;34.10
42663;DHT22;44330;51.360;6.686;2022-07-06T02:23:12;12.50;34.90
42663;DHT22;44330;51.360;6.686;2022-07-06T02:25:37;12.50;34.30
42663;DHT22;44330;51.360;6.686;2022-07-06T02:28:03;12.50;35.50
42663;DHT22;44330;51.360;6.686;2022-07-06T02:30:29;12.40;35.90
42663;DHT22;44330;51.360;6.686;2022-07-06T02:32:54;12.40;34.00
42663;DHT22;44330;51.360;6.686;2022-07-06T02:35:20;12.40;32.50
42663;DHT22;44330;51.360;6.686;2022-07-06T02:37:46;12.30;32.60
42663;DHT22;44330;51.360;6.686;2022-07-06T02:40:12;12.30;33.10
42663;DHT22;44330;51.360;6.686;2022-07-06T02:42:37;12.30;34.90
42663;DHT22;44330;51.360;6.686;2022-07-06T02:45:03;12.30;35.30
42663;DHT22;44330;51.360;6.686;2022-07-06T02:47:29;12.20;35.80
42663;DHT22;44330;51.360;6.686;2022-07-06T02:49:55;12.20;36.60
42663;DHT22;44330;51.360;6.686;2022-07-06T02:52:20;12.20;38.60
42663;DHT22;44330;51.360;6.686;2022-07-06T02:54:46;12.20;39.60
42663;DHT22;44330;51.360;6.686;2022-07-06T02:57:12;12.10;40.90
42663;DHT22;44330;51.360;6.686;2022-07-06T02:59:37;12.10;42.60
42663;DHT22;44330;51.360;6.686;2022-07-06T03:02:04;12.00;44.90
42663;DHT22;44330;51.360;6.686;2022-07-06T03:04:29;12.00;44.80
42663;DHT22;44330;51.360;6.686;2022-07-06T03:06:55;12.00;46.10
42663;DHT22;44330;51.360;6.686;2022-07-06T03:09:20;12.00;47.90
42663;DHT22;44330;51.360;6.686;2022-07-06T03:11:46;12.00;48.50
42663;DHT22;44330;51.360;6.686;2022-07-06T03:14:12;11.90;49.60
42663;DHT22;44330;51.360;6.686;2022-07-06T03:16:37;11.90;50.10
42663;DHT22;44330;51.360;6.686;2022-07-06T03:19:03;11.80;51.30
42663;DHT22;44330;51.360;6.686;2022-07-06T03:21:28;11.80;53.30
42663;DHT22;44330;51.360;6.686;2022-07-06T03:23:54;11.70;54.60
42663;DHT22;44330;51.360;6.686;2022-07-06T03:26:20;11.70;56.60
42663;DHT22;44330;51.360;6.686;2022-07-06T03:28:45;11.70;56.80
42663;DHT22;44330;51.360;6.686;2022-07-06T03:31:11;11.70;57.60
42663;DHT22;44330;51.360;6.686;2022-07-06T03:33:36;11.70;57.60
42663;DHT22;44330;51.360;6.686;2022-07-06T03:36:02;11.70;57.50
42663;DHT22;44330;51.360;6.686;2022-07-06T03:38:28;11.70;57.90
42663;DHT22;44330;51.360;6.686;2022-07-06T03:40:53;11.70;58.40
42663;DHT22;44330;51.360;6.686;2022-07-06T03:43:19;11.70;59.00
42663;DHT22;44330;51.360;6.686;2022-07-06T03:45:44;11.70;59.90
42663;DHT22;44330;51.360;6.686;2022-07-06T03:48:10;11.70;61.30
42663;DHT22;44330;51.360;6.686;2022-07-06T03:50:35;11.70;61.90
42663;DHT22;44330;51.360;6.686;2022-07-06T03:53:01;11.70;63.20
42663;DHT22;44330;51.360;6.686;2022-07-06T03:55:27;11.70;63.40
42663;DHT22;44330;51.360;6.686;2022-07-06T03:57:52;11.70;63.70
42663;DHT22;44330;51.360;6.686;2022-07-06T04:00:18;11.70;64.00
42663;DHT22;44330;51.360;6.686;2022-07-06T04:02:43;11.80;64.80
42663;DHT22;44330;51.360;6.686;2022-07-06T04:05:09;11.90;65.20
42663;DHT22;44330;51.360;6.686;2022-07-06T04:07:34;11.90;64.60
42663;DHT22;44330;51.360;6.686;2022-07-06T04:10:00;12.00;64.00
42663;DHT22;44330;51.360;6.686;2022-07-06T04:12:26;12.00;64.60
42663;DHT22;44330;51.360;6.686;2022-07-06T04:14:51;12.00;64.60
42663;DHT22;44330;51.360;6.686;2022-07-06T04:17:17;12.10;64.50
42663;DHT22;44330;51.360;6.686;2022-07-06T04:20:01;12.10;63.50
42663;DHT22;44330;51.360;6.686;2022-07-06T04:22:27;12.10;62.60
42663;DHT22;44330;51.360;6.686;2022-07-06T04:24:53;12.20;61.10
42663;DHT22;44330;51.360;6.686;2022-07-06T04:27:18;12.20;60.60
42663;DHT22;44330;51.360;6.686;2022-07-06T04:29:44;12.20;60.70
42663;DHT22;44330;51.360;6.686;2022-07-06T04:32:09;12.30;61.50
42663;DHT22;44330;51.360;6.686;2022-07-06T04:34:35;12.30;61.20
42663;DHT22;44330;51.360;6.686;2022-07-06T04:37:00;12.30;62.30
42663;DHT22;44330;51.360;6.686;2022-07-06T04:39:26;12.40;61.80
42663;DHT22;44330;51.360;6.686;2022-07-06T04:41:52;12.40;60.70
42663;DHT22;44330;51.360;6.686;2022-07-06T04:44:17;12.40;60.10
42663;DHT22;44330;51.360;6.686;2022-07-06T04:46:43;12.50;60.10
42663;DHT22;44330;51.360;6.686;2022-07-06T04:49:08;12.50;59.90
42663;DHT22;44330;51.360;6.686;2022-07-06T04:51:34;12.50;59.00
42663;DHT22;44330;51.360;6.686;2022-07-06T04:53:59;12.60;57.00
42663;DHT22;44330;51.360;6.686;2022-07-06T04:56:25;12.80;53.20
42663;DHT22;44330;51.360;6.686;2022-07-06T04:58:50;12.70;52.50
42663;DHT22;44330;51.360;6.686;2022-07-06T05:01:16;12.80;51.70
42663;DHT22;44330;51.360;6.686;2022-07-06T05:03:41;12.80;48.60
42663;DHT22;44330;51.360;6.686;2022-07-06T05:06:07;12.80;47.40
42663;DHT22;44330;51.360;6.686;2022-07-06T05:08:33;12.80;48.10
42663;DHT22;44330;51.360;6.686;2022-07-06T05:10:59;12.80;49.10
42663;DHT22;44330;51.360;6.686;2022-07-06T05:13:25;12.90;50.00
42663;DHT22;44330;51.360;6.686;2022-07-06T05:15:50;12.90;50.10
42663;DHT22;44330;51.360;6.686;2022-07-06T05:18:16;12.90;49.50
42663;DHT22;44330;51.360;6.686;2022-07-06T05:20:42;12.90;48.40
42663;DHT22;44330;51.360;6.686;2022-07-06T05:23:08;12.90;47.40
42663;DHT22;44330;51.360;6.686;2022-07-06T05:25:33;12.90;46.80
42663;DHT22;44330;51.360;6.686;2022-07-06T05:27:59;12.90;45.80
42663;DHT22;44330;51.360;6.686;2022-07-06T05:30:26;12.90;46.90
42663;DHT22;44330;51.360;6.686;2022-07-06T05:32:51;12.90;47.20
42663;DHT22;44330;51.360;6.686;2022-07-06T05:35:17;13.00;47.90
42663;DHT22;44330;51.360;6.686;2022-07-06T05:37:43;13.00;49.20
42663;DHT22;44330;51.360;6.686;2022-07-06T05:40:09;13.10;49.50
42663;DHT22;44330;51.360;6.686;2022-07-06T05:42:35;13.20;47.80
42663;DHT22;44330;51.360;6.686;2022-07-06T05:45:00;13.30;48.30
42663;DHT22;44330;51.360;6.686;2022-07-06T05:47:26;13.40;48.40
42663;DHT22;44330;51.360;6.686;2022-07-06T05:50:10;13.60;47.90
42663;DHT22;44330;51.360;6.686;2022-07-06T05:52:39;13.70;46.80
42663;DHT22;44330;51.360;6.686;2022-07-06T05:55:05;13.80;45.80
42663;DHT22;44330;51.360;6.686;2022-07-06T05:57:31;14.00;42.10
42663;DHT22;44330;51.360;6.686;2022-07-06T05:59:56;14.20;33.90
42663;DHT22;44330;51.360;6.686;2022-07-06T06:02:22;14.30;21.40
42663;DHT22;44330;51.360;6.686;2022-07-06T06:04:47;14.40;2.90
42663;DHT22;44330;51.360;6.686;2022-07-06T06:07:13;14.50;1.00
42663;DHT22;44330;51.360;6.686;2022-07-06T06:09:38;14.60;1.00
42663;DHT22;44330;51.360;6.686;2022-07-06T06:12:04;14.70;1.00
42663;DHT22;44330;51.360;6.686;2022-07-06T06:14:30;14.90;1.00
42663;DHT22;44330;51.360;6.686;2022-07-06T06:16:55;15.00;1.00
42663;DHT22;44330;51.360;6.686;2022-07-06T06:19:21;15.10;1.00
42663;DHT22;44330;51.360;6.686;2022-07-06T06:21:46;15.30;1.00
42663;DHT22;44330;51.360;6.686;2022-07-06T06:24:12;15.30;1.00
42663;DHT22;44330;51.360;6.686;2022-07-06T06:26:38;15.50;1.00
42663;DHT22;44330;51.360;6.686;2022-07-06T06:29:03;15.60;1.00
42663;DHT22;44330;51.360;6.686;2022-07-06T06:31:29;15.70;1.00
42663;DHT22;44330;51.360;6.686;2022-07-06T06:33:54;15.70;99.90
42663;DHT22;44330;51.360;6.686;2022-07-06T06:36:20;15.90;99.90
42663;DHT22;44330;51.360;6.686;2022-07-06T06:38:45;15.90;99.90
42663;DHT22;44330;51.360;6.686;2022-07-06T06:41:11;16.00;99.90
42663;DHT22;44330;51.360;6.686;2022-07-06T06:43:36;16.10;99.90
42663;DHT22;44330;51.360;6.686;2022-07-06T06:46:03;16.20;99.90
42663;DHT22;44330;51.360;6.686;2022-07-06T06:48:29;16.20;99.90
42663;DHT22;44330;51.360;6.686;2022-07-06T06:50:57;16.40;99.90
42663;DHT22;44330;51.360;6.686;2022-07-06T06:53:23;16.50;99.90
42663;DHT22;44330;51.360;6.686;2022-07-06T06:55:49;16.50;99.90
42663;DHT22;44330;51.360;6.686;2022-07-06T06:58:14;16.50;99.90
42663;DHT22;44330;51.360;6.686;2022-07-06T07:00:40;16.60;99.90
42663;DHT22;44330;51.360;6.686;2022-07-06T07:03:06;16.70;99.90
42663;DHT22;44330;51.360;6.686;2022-07-06T07:05:31;16.80;99.90
42663;DHT22;44330;51.360;6.686;2022-07-06T07:07:57;16.90;99.90
42663;DHT22;44330;51.360;6.686;2022-07-06T07:10:25;17.00;99.90
42663;DHT22;44330;51.360;6.686;2022-07-06T07:12:51;17.10;94.70
42663;DHT22;44330;51.360;6.686;2022-07-06T07:15:17;17.20;38.80
42663;DHT22;44330;51.360;6.686;2022-07-06T07:17:42;17.20;1.00
42663;DHT22;44330;51.360;6.686;2022-07-06T07:20:08;17.30;99.90
42663;DHT22;44330;51.360;6.686;2022-07-06T07:22:34;17.30;1.00
42663;DHT22;44330;51.360;6.686;2022-07-06T07:25:00;17.40;99.90
42663;DHT22;44330;51.360;6.686;2022-07-06T07:27:26;17.50;99.90
42663;DHT22;44330;51.360;6.686;2022-07-06T07:29:51;17.50;99.90
42663;DHT22;44330;51.360;6.686;2022-07-06T07:32:17;17.60;99.90
42663;DHT22;44330;51.360;6.686;2022-07-06T07:34:42;17.70;99.90
42663;DHT22;44330;51.360;6.686;2022-07-06T07:37:08;17.70;99.90
42663;DHT22;44330;51.360;6.686;2022-07-06T07:39:33;17.80;99.90
42663;DHT22;44330;51.360;6.686;2022-07-06T07:41:59;17.90;99.90
42663;DHT22;44330;51.360;6.686;2022-07-06T07:44:24;18.10;99.90
42663;DHT22;44330;51.360;6.686;2022-07-06T07:46:52;18.30;1.00
42663;DHT22;44330;51.360;6.686;2022-07-06T07:49:18;18.40;99.90
42663;DHT22;44330;51.360;6.686;2022-07-06T07:51:44;18.50;99.90
42663;DHT22;44330;51.360;6.686;2022-07-06T07:54:12;18.60;32.80
42663;DHT22;44330;51.360;6.686;2022-07-06T07:56:37;18.80;99.90
42663;DHT22;44330;51.360;6.686;2022-07-06T07:59:06;18.90;96.10
42663;DHT22;44330;51.360;6.686;2022-07-06T08:01:32;18.90;74.70
42663;DHT22;44330;51.360;6.686;2022-07-06T08:03:58;18.90;1.00
42663;DHT22;44330;51.360;6.686;2022-07-06T08:06:24;19.10;99.90
42663;DHT22;44330;51.360;6.686;2022-07-06T08:08:50;19.10;99.90
42663;DHT22;44330;51.360;6.686;2022-07-06T08:11:16;19.20;82.30
42663;DHT22;44330;51.360;6.686;2022-07-06T08:13:41;19.20;1.00
42663;DHT22;44330;51.360;6.686;2022-07-06T08:16:07;19.40;99.90
42663;DHT22;44330;51.360;6.686;2022-07-06T08:18:35;19.40;99.90
42663;DHT22;44330;51.360;6.686;2022-07-06T08:21:01;19.50;99.90
42663;DHT22;44330;51.360;6.686;2022-07-06T08:23:26;19.60;58.40
42663;DHT22;44330;51.360;6.686;2022-07-06T08:25:52;19.60;1.00
42663;DHT22;44330;51.360;6.686;2022-07-06T08:28:17;19.60;90.80
42663;DHT22;44330;51.360;6.686;2022-07-06T08:30:43;19.50;1.00
42663;DHT22;44330;51.360;6.686;2022-07-06T08:33:08;19.70;10.10
42663;DHT22;44330;51.360;6.686;2022-07-06T08:35:34;20.00;70.30
42663;DHT22;44330;51.360;6.686;2022-07-06T08:37:59;20.30;9.20
42663;DHT22;44330;51.360;6.686;2022-07-06T08:40:27;20.70;99.90
42663;DHT22;44330;51.360;6.686;2022-07-06T08:42:56;21.10;99.90
42663;DHT22;44330;51.360;6.686;2022-07-06T08:45:25;21.30;31.60
42663;DHT22;44330;51.360;6.686;2022-07-06T08:47:54;21.70;1.00
42663;DHT22;44330;51.360;6.686;2022-07-06T08:50:20;22.00;99.90
42663;DHT22;44330;51.360;6.686;2022-07-06T08:52:47;22.30;99.90
42663;DHT22;44330;51.360;6.686;2022-07-06T08:55:14;22.50;99.90
42663;DHT22;44330;51.360;6.686;2022-07-06T08:57:39;22.50;99.90
42663;DHT22;44330;51.360;6.686;2022-07-06T09:00:09;22.50;58.00
42663;DHT22;44330;51.360;6.686;2022-07-06T09:02:36;22.30;24.90
42663;DHT22;44330;51.360;6.686;2022-07-06T09:05:03;22.20;1.00
42663;DHT22;44330;51.360;6.686;2022-07-06T09:07:29;22.10;1.00
42663;DHT22;44330;51.360;6.686;2022-07-06T09:09:56;22.00;1.60
42663;DHT22;44330;51.360;6.686;2022-07-06T09:12:22;21.90;99.90
42663;DHT22;44330;51.360;6.686;2022-07-06T09:15:03;21.40;99.90
42663;DHT22;44330;51.360;6.686;2022-07-06T09:17:29;21.60;99.90
42663;DHT22;44330;51.360;6.686;2022-07-06T09:19:55;22.00;99.90
42663;DHT22;44330;51.360;6.686;2022-07-06T09:22:29;22.60;99.90
42663;DHT22;44330;51.360;6.686;2022-07-06T09:25:08;22.80;99.90
42663;DHT22;44330;51.360;6.686;2022-07-06T09:27:38;23.20;99.90
42663;DHT22;44330;51.360;6.686;2022-07-06T09:30:05;23.70;99.90
42663;DHT22;44330;51.360;6.686;2022-07-06T09:32:37;23.90;99.90
42663;DHT22;44330;51.360;6.686;2022-07-06T09:35:04;24.10;99.90
42663;DHT22;44330;51.360;6.686;2022-07-06T09:37:29;24.30;99.90
42663;DHT22;44330;51.360;6.686;2022-07-06T09:39:55;24.40;99.90
42663;DHT22;44330;51.360;6.686;2022-07-06T09:42:25;24.70;99.90
42663;DHT22;44330;51.360;6.686;2022-07-06T09:44:51;24.80;29.80
42663;DHT22;44330;51.360;6.686;2022-07-06T09:47:18;25.00;28.60
42663;DHT22;44330;51.360;6.686;2022-07-06T09:49:45;25.10;1.00
42663;DHT22;44330;51.360;6.686;2022-07-06T09:52:11;24.90;1.00
42663;DHT22;44330;51.360;6.686;2022-07-06T09:54:40;24.80;1.00
42663;DHT22;44330;51.360;6.686;2022-07-06T09:57:06;24.70;4.00
42663;DHT22;44330;51.360;6.686;2022-07-06T09:59:34;24.50;1.00
42663;DHT22;44330;51.360;6.686;2022-07-06T10:02:05;24.20;1.00
42663;DHT22;44330;51.360;6.686;2022-07-06T10:04:31;24.10;5.10
42663;DHT22;44330;51.360;6.686;2022-07-06T10:06:58;24.30;3.00
42663;DHT22;44330;51.360;6.686;2022-07-06T10:09:25;24.50;6.40
42663;DHT22;44330;51.360;6.686;2022-07-06T10:11:57;24.80;1.00
42663;DHT22;44330;51.360;6.686;2022-07-06T10:14:28;24.70;1.00
42663;DHT22;44330;51.360;6.686;2022-07-06T10:17:00;24.90;1.00
42663;DHT22;44330;51.360;6.686;2022-07-06T10:19:27;25.20;1.00
42663;DHT22;44330;51.360;6.686;2022-07-06T10:21:52;25.50;1.00
42663;DHT22;44330;51.360;6.686;2022-07-06T10:24:21;25.80;1.00
42663;DHT22;44330;51.360;6.686;2022-07-06T10:26:47;25.90;1.00
42663;DHT22;44330;51.360;6.686;2022-07-06T10:29:14;26.20;1.00
42663;DHT22;44330;51.360;6.686;2022-07-06T10:31:48;26.20;1.00
42663;DHT22;44330;51.360;6.686;2022-07-06T10:34:16;26.20;1.00
42663;DHT22;44330;51.360;6.686;2022-07-06T10:36:43;26.10;1.00
42663;DHT22;44330;51.360;6.686;2022-07-06T10:39:10;25.90;1.00
42663;DHT22;44330;51.360;6.686;2022-07-06T10:41:55;25.60;1.00
42663;DHT22;44330;51.360;6.686;2022-07-06T10:44:26;25.40;1.00
42663;DHT22;44330;51.360;6.686;2022-07-06T10:46:56;25.40;1.00
42663;DHT22;44330;51.360;6.686;2022-07-06T10:49:23;25.40;1.00
42663;DHT22;44330;51.360;6.686;2022-07-06T10:51:49;25.30;1.00
42663;DHT22;44330;51.360;6.686;2022-07-06T10:54:16;25.20;1.00
42663;DHT22;44330;51.360;6.686;2022-07-06T10:56:44;25.10;1.00
42663;DHT22;44330;51.360;6.686;2022-07-06T10:59:23;25.00;1.00
42663;DHT22;44330;51.360;6.686;2022-07-06T11:02:14;25.00;1.00
42663;DHT22;44330;51.360;6.686;2022-07-06T11:04:42;25.20;1.00
42663;DHT22;44330;51.360;6.686;2022-07-06T11:07:15;25.60;1.00
42663;DHT22;44330;51.360;6.686;2022-07-06T11:09:45;25.90;1.00
42663;DHT22;44330;51.360;6.686;2022-07-06T11:12:19;25.90;1.00
42663;DHT22;44330;51.360;6.686;2022-07-06T11:14:46;25.40;1.00
42663;DHT22;44330;51.360;6.686;2022-07-06T11:17:12;25.40;1.00
42663;DHT22;44330;51.360;6.686;2022-07-06T11:19:47;25.50;1.00
42663;DHT22;44330;51.360;6.686;2022-07-06T11:22:15;25.70;1.00
42663;DHT22;44330;51.360;6.686;2022-07-06T11:24:41;25.10;99.90
42663;DHT22;44330;51.360;6.686;2022-07-06T11:27:07;25.20;1.00
42663;DHT22;44330;51.360;6.686;2022-07-06T11:29:33;25.40;99.90
42663;DHT22;44330;51.360;6.686;2022-07-06T11:32:05;25.70;1.00
42663;DHT22;44330;51.360;6.686;2022-07-06T11:34:33;26.20;99.90
42663;DHT22;44330;51.360;6.686;2022-07-06T11:37:07;26.30;99.90
42663;DHT22;44330;51.360;6.686;2022-07-06T11:39:43;26.00;99.90
42663;DHT22;44330;51.360;6.686;2022-07-06T11:42:11;25.90;99.90
42663;DHT22;44330;51.360;6.686;2022-07-06T11:44:37;25.90;99.90
42663;DHT22;44330;51.360;6.686;2022-07-06T11:47:04;25.80;99.90
42663;DHT22;44330;51.360;6.686;2022-07-06T11:49:31;25.60;99.90
42663;DHT22;44330;51.360;6.686;2022-07-06T11:51:57;25.50;99.90
42663;DHT22;44330;51.360;6.686;2022-07-06T11:54:24;25.40;99.90
42663;DHT22;44330;51.360;6.686;2022-07-06T11:59:26;25.10;99.90
42663;DHT22;44330;51.360;6.686;2022-07-06T12:02:02;25.00;99.90
42663;DHT22;44330;51.360;6.686;2022-07-06T12:04:30;24.90;99.90
42663;DHT22;44330;51.360;6.686;2022-07-06T12:07:01;24.80;99.90
42663;DHT22;44330;51.360;6.686;2022-07-06T12:09:30;24.90;1.00
42663;DHT22;44330;51.360;6.686;2022-07-06T12:11:55;24.90;1.00
42663;DHT22;44330;51.360;6.686;2022-07-06T12:14:21;25.00;99.90
42663;DHT22;44330;51.360;6.686;2022-07-06T12:16:49;24.90;99.90
42663;DHT22;44330;51.360;6.686;2022-07-06T12:19:15;25.10;1.00
42663;DHT22;44330;51.360;6.686;2022-07-06T12:21:47;25.10;99.90
42663;DHT22;44330;51.360;6.686;2022-07-06T12:24:20;25.10;99.90
42663;DHT22;44330;51.360;6.686;2022-07-06T12:26:47;25.10;99.90
42663;DHT22;44330;51.360;6.686;2022-07-06T12:29:13;25.30;99.90
42663;DHT22;44330;51.360;6.686;2022-07-06T12:31:41;25.60;99.90
42663;DHT22;44330;51.360;6.686;2022-07-06T12:34:16;25.90;99.90
42663;DHT22;44330;51.360;6.686;2022-07-06T12:36:56;26.00;99.90
42663;DHT22;44330;51.360;6.686;2022-07-06T12:39:24;25.80;99.90
42663;DHT22;44330;51.360;6.686;2022-07-06T12:41:52;25.60;99.90
42663;DHT22;44330;51.360;6.686;2022-07-06T12:44:23;25.40;99.90
42663;DHT22;44330;51.360;6.686;2022-07-06T12:47:09;25.30;99.90
42663;DHT22;44330;51.360;6.686;2022-07-06T12:49:37;25.30;99.90
42663;DHT22;44330;51.360;6.686;2022-07-06T12:54:34;25.30;99.90
42663;DHT22;44330;51.360;6.686;2022-07-06T12:57:22;25.30;99.90
42663;DHT22;44330;51.360;6.686;2022-07-06T13:02:43;25.60;99.90
42663;DHT22;44330;51.360;6.686;2022-07-06T13:05:08;25.60;99.90
42663;DHT22;44330;51.360;6.686;2022-07-06T13:07:37;25.90;99.90
42663;DHT22;44330;51.360;6.686;2022-07-06T13:10:04;26.00;99.90
42663;DHT22;44330;51.360;6.686;2022-07-06T13:12:31;25.90;99.90
42663;DHT22;44330;51.360;6.686;2022-07-06T13:14:57;25.70;99.90
42663;DHT22;44330;51.360;6.686;2022-07-06T13:17:22;25.60;99.90
42663;DHT22;44330;51.360;6.686;2022-07-06T13:19:48;25.60;99.90
42663;DHT22;44330;51.360;6.686;2022-07-06T13:22:14;25.80;99.90
42663;DHT22;44330;51.360;6.686;2022-07-06T13:24:40;25.90;99.90
42663;DHT22;44330;51.360;6.686;2022-07-06T13:27:06;26.10;99.90
42663;DHT22;44330;51.360;6.686;2022-07-06T13:29:31;26.30;99.90
42663;DHT22;44330;51.360;6.686;2022-07-06T13:31:58;26.50;99.90
42663;DHT22;44330;51.360;6.686;2022-07-06T13:34:23;26.40;99.90
42663;DHT22;44330;51.360;6.686;2022-07-06T13:36:50;26.50;99.90
42663;DHT22;44330;51.360;6.686;2022-07-06T13:39:15;26.30;99.90
42663;DHT22;44330;51.360;6.686;2022-07-06T13:41:41;26.30;99.90
42663;DHT22;44330;51.360;6.686;2022-07-06T13:44:07;26.10;99.90
42663;DHT22;44330;51.360;6.686;2022-07-06T13:46:35;25.90;99.90
42663;DHT22;44330;51.360;6.686;2022-07-06T13:49:03;25.60;99.90
42663;DHT22;44330;51.360;6.686;2022-07-06T13:51:28;25.50;99.90
42663;DHT22;44330;51.360;6.686;2022-07-06T13:53:54;25.60;99.90
42663;DHT22;44330;51.360;6.686;2022-07-06T13:56:20;25.70;99.90
42663;DHT22;44330;51.360;6.686;2022-07-06T13:58:46;25.70;99.90
42663;DHT22;44330;51.360;6.686;2022-07-06T14:01:14;25.80;99.90
42663;DHT22;44330;51.360;6.686;2022-07-06T14:03:40;25.80;99.90
42663;DHT22;44330;51.360;6.686;2022-07-06T14:06:06;25.90;99.90
42663;DHT22;44330;51.360;6.686;2022-07-06T14:08:37;25.90;99.90
42663;DHT22;44330;51.360;6.686;2022-07-06T14:11:04;25.80;99.90
42663;DHT22;44330;51.360;6.686;2022-07-06T14:13:30;25.80;99.90
42663;DHT22;44330;51.360;6.686;2022-07-06T14:15:56;25.90;99.90
42663;DHT22;44330;51.360;6.686;2022-07-06T14:18:23;25.50;99.90
42663;DHT22;44330;51.360;6.686;2022-07-06T14:20:50;25.40;99.90
42663;DHT22;44330;51.360;6.686;2022-07-06T14:23:16;25.50;99.90
42663;DHT22;44330;51.360;6.686;2022-07-06T14:25:42;25.60;99.90
42663;DHT22;44330;51.360;6.686;2022-07-06T14:28:08;25.80;99.90
42663;DHT22;44330;51.360;6.686;2022-07-06T14:30:35;25.90;99.90
42663;DHT22;44330;51.360;6.686;2022-07-06T14:33:08;26.10;99.90
42663;DHT22;44330;51.360;6.686;2022-07-06T14:35:35;26.30;99.90
42663;DHT22;44330;51.360;6.686;2022-07-06T14:38:02;26.30;99.90
42663;DHT22;44330;51.360;6.686;2022-07-06T14:40:29;26.20;99.90
42663;DHT22;44330;51.360;6.686;2022-07-06T14:42:54;26.40;99.90
42663;DHT22;44330;51.360;6.686;2022-07-06T14:45:20;26.00;99.90
42663;DHT22;44330;51.360;6.686;2022-07-06T14:47:46;26.20;99.90
42663;DHT22;44330;51.360;6.686;2022-07-06T14:50:11;26.30;99.90
42663;DHT22;44330;51.360;6.686;2022-07-06T14:52:37;26.40;99.90
42663;DHT22;44330;51.360;6.686;2022-07-06T14:55:02;26.40;99.90
42663;DHT22;44330;51.360;6.686;2022-07-06T14:57:28;26.30;99.90
42663;DHT22;44330;51.360;6.686;2022-07-06T14:59:54;26.00;99.90
42663;DHT22;44330;51.360;6.686;2022-07-06T15:02:19;25.80;99.90
42663;DHT22;44330;51.360;6.686;2022-07-06T15:04:45;25.60;99.90
42663;DHT22;44330;51.360;6.686;2022-07-06T15:07:10;25.40;99.90
42663;DHT22;44330;51.360;6.686;2022-07-06T15:09:36;25.40;99.90
42663;DHT22;44330;51.360;6.686;2022-07-06T15:12:02;25.30;99.90
42663;DHT22;44330;51.360;6.686;2022-07-06T15:14:28;25.10;99.90
42663;DHT22;44330;51.360;6.686;2022-07-06T15:16:54;25.00;99.90
42663;DHT22;44330;51.360;6.686;2022-07-06T15:19:19;25.30;99.90
42663;DHT22;44330;51.360;6.686;2022-07-06T15:21:45;25.60;99.90
42663;DHT22;44330;51.360;6.686;2022-07-06T15:24:11;25.90;99.90
42663;DHT22;44330;51.360;6.686;2022-07-06T15:26:36;26.00;99.90
42663;DHT22;44330;51.360;6.686;2022-07-06T15:29:02;26.00;99.90
42663;DHT22;44330;51.360;6.686;2022-07-06T15:31:28;25.90;99.90
42663;DHT22;44330;51.360;6.686;2022-07-06T15:33:54;25.80;99.90
42663;DHT22;44330;51.360;6.686;2022-07-06T15:36:19;25.60;99.90
42663;DHT22;44330;51.360;6.686;2022-07-06T15:38:45;25.60;99.90
42663;DHT22;44330;51.360;6.686;2022-07-06T15:41:10;25.40;99.90